This is the latest recevied weather packets stored in our database for station/object N1ADJ. If no packets are shown the sender has not sent any weather packets the latest 10 day(s).
| Time | Temp. | Humidity | Pressure | Rain* | Wind** | Luminosity | Snow |
|---|---|---|---|---|---|---|---|
| 1777307716 | 14.44° C | 64% | 1024.7 hPa | 0 mm | - | - | - |
| 1777306536 | 14.44° C | 65% | 1024.7 hPa | 0 mm | - | - | - |
| 1777304118 | 14.44° C | 64% | 1024.8 hPa | 0 mm | - | - | - |
| 1777303818 | 14.44° C | 66% | 1024.9 hPa | 0 mm | - | - | - |
| 1777302618 | 14.44° C | 66% | 1025.2 hPa | 0 mm | - | - | - |
| 1777297818 | 13.89° C | 64% | 1025.2 hPa | 0 mm | - | - | - |
| 1777297218 | 13.33° C | 67% | 1025.3 hPa | 0 mm | - | - | - |
| 1777295419 | 12.78° C | 67% | 1025.1 hPa | 0 mm | - | - | - |
| 1777291243 | 5.56° C | 96% | 1024.6 hPa | 0 mm | - | - | - |
| 1777289717 | 4.44° C | 97% | 1024.6 hPa | 0 mm | - | - | - |
| 1777289458 | 4.44° C | 97% | 1024.6 hPa | 0 mm | - | - | - |
| 1777287918 | 2.22° C | 96% | 1024.4 hPa | 0 mm | - | - | - |
| 1777285217 | 0.56° C | 93% | 1024.1 hPa | 0 mm | - | - | - |
| 1777284617 | 0.56° C | 93% | 1024.1 hPa | 0 mm | - | - | - |
| 1777283717 | 0.56° C | 93% | 1024.1 hPa | 0 mm | - | - | - |
| 1777281919 | 0.56° C | 93% | 1023.6 hPa | 0 mm | - | - | - |
| 1777281318 | 1.11° C | 93% | 1023.6 hPa | 0 mm | - | - | - |
| 1777281017 | 1.11° C | 93% | 1023.6 hPa | 0 mm | - | - | - |
| 1777280119 | 1.11° C | 93% | 1023.4 hPa | 0 mm | - | - | - |
| 1777279517 | 1.11° C | 93% | 1023.2 hPa | 0 mm | - | - | - |
| 1777278619 | 1.11° C | 92% | 1023.1 hPa | 0 mm | - | - | - |
| 1777277419 | 1.11° C | 92% | 1022.8 hPa | 0 mm | - | - | - |
| 1777277139 | 1.11° C | 92% | 1022.9 hPa | 0 mm | - | - | - |
| 1777274117 | 1.67° C | 92% | 1022.2 hPa | 0 mm | - | - | - |
| 1777273518 | 1.67° C | 92% | 1022.1 hPa | 0 mm | - | - | - |
* Rain latest hour (hover to see other rain measurements)
** Current wind speed in m/s (hover to see current wind gust speed)